Lachine, MI

7:35 PM EDT on April 18, 2015 (GMT -0400)
MesoWest | | Change Station
CLOSE
Current Station
Personal Weather Station
Location: Lachine, MI
Elevation: 750 ft
Nearby Weather Stations

Elev 750 ft 45.07 °N, 83.72 °W | Updated 30 minutes ago

Clear
Clear
56 °F
Feels Like 56 °F
N
12
Wind Variable Wind from East
Gusts 15.0 mph

Today
High -- | Low -- °F
--% Chance of Precip.
Yesterday
High -- | Low -- °F
Precip. -- in
6:45 AM 8:24 PM
New Moon, 0% visible
Pressure 30.23 in
Visibility 10.0 miles
Clouds Clear
Dew Point 22 °F
Humidity 27%
Rainfall in
Snow Depth Not available.
UV 1 out of 12
Pollen 11.10 out of 12
Air Quality Not available.
Flu Activity Regional
METAR KAPN 182254Z AUTO 08009KT 10SM CLR 14/M06 A3022 RMK AO2 SLP236 T01391061

More Conditions Fewer Conditions

Pressure 30.23 in
Visibility 10.0 miles
Clouds Clear
Dew Point 22 °F
Humidity 27%
Rainfall in
Snow Depth Not available.
UV 1 out of 12
Pollen 11.10 out of 12
Air Quality Not available.
Flu Activity Regional
METAR KAPN 182254Z AUTO 08009KT 10SM CLR 14/M06 A3022 RMK AO2 SLP236 T01391061

More Conditions Fewer Conditions

Nowcast | as of 7:00 PM EDT on April 18, 2015

At 8 PM...clear. Temperature 51. Light winds. At 10 PM...clear. Temperature 45. Light winds. At 12 am...clear. Temperature 39. Light winds. At 2 am...clear. Temperature 34. East winds 8 mph.

×

10-Day Weather Forecast

Almanac

Astronomy

Apr. 18, 2015 Rise Set
Actual Time
Civil Twilight
Nautical Twilight
Astronomical Twilight
Moon
Length of Visible Light
Length of Day
Tomorrow will be .
, % of the Moon is Illuminated

Today's Extremes

State Highs State Lows

Community

WunderPhotos

Upload Photos

1,814,576 photos uploaded!

WunderBlogs® & News

Nearby

Air Quality

  Air Quality AQ Index Pollutant
Not available.

Snow Depth

Station Depth Elevation

Earthquake Activity

City Distance Mag. Time & Date
Minimum magnitude displayed is 2.5.

Coastal Water Temperatures

Place Temperature

Stations

Nearby Weather Stations

Station Location Temp. Windchill Dew Point Humidity Wind Precip. Elev Updated Type